createdAt,value
2023-02-16T03:41:56.906Z,39.72
2023-02-16T03:44:27.506Z,40.60
2023-02-16T03:46:54.446Z,39.25
2023-02-16T03:49:21.494Z,38.92
2023-02-16T03:51:48.517Z,34.40
2023-02-16T03:54:15.573Z,41.70
2023-02-16T03:56:42.574Z,40.30
2023-02-16T03:59:09.525Z,35.53
2023-02-16T04:01:36.553Z,42.55
2023-02-16T04:04:04.846Z,43.58
2023-02-16T04:06:31.918Z,36.70
2023-02-16T04:09:00.724Z,37.60
2023-02-16T04:11:46.276Z,44.85
2023-02-16T04:14:14.074Z,42.92
2023-02-16T04:16:41.066Z,42.05
2023-02-16T04:19:08.062Z,45.60
2023-02-16T04:21:35.170Z,41.83
2023-02-16T04:24:02.809Z,40.75
2023-02-16T04:26:29.686Z,41.72
2023-02-16T04:28:56.611Z,43.42
2023-02-16T04:31:23.618Z,43.40
2023-02-16T04:33:50.573Z,44.58
2023-02-16T04:36:17.629Z,43.45
2023-02-16T04:38:44.590Z,47.40
2023-02-16T04:41:11.475Z,44.30
2023-02-16T04:43:39.192Z,44.40
2023-02-16T04:46:06.151Z,44.38
2023-02-16T04:48:33.107Z,45.03
2023-02-16T04:51:00.041Z,48.30
2023-02-16T04:53:26.981Z,44.85
2023-02-16T04:55:53.987Z,48.92
2023-02-16T04:58:20.960Z,43.22
2023-02-16T05:00:47.895Z,47.88
2023-02-16T05:03:14.834Z,41.65
2023-02-16T05:05:41.789Z,45.75
2023-02-16T05:08:08.773Z,44.42
2023-02-16T05:10:35.977Z,45.67
2023-02-16T05:13:21.294Z,49.22
2023-02-16T05:15:48.459Z,50.70
2023-02-16T05:18:15.679Z,45.28
2023-02-16T05:21:01.300Z,44.28
2023-02-16T05:23:28.351Z,51.05
2023-02-16T05:25:55.269Z,49.33
2023-02-16T05:28:22.239Z,47.55
2023-02-16T05:30:49.310Z,43.92
2023-02-16T05:33:16.436Z,42.80
2023-02-16T05:35:43.335Z,44.30
2023-02-16T05:38:10.210Z,43.95
2023-02-16T05:40:37.142Z,51.00
2023-02-16T05:43:04.063Z,51.83
2023-02-16T05:45:31.072Z,56.63
2023-02-16T05:47:57.987Z,51.35
2023-02-16T05:50:25.737Z,47.83
2023-02-16T05:52:52.803Z,55.92
2023-02-16T05:55:19.739Z,49.97
2023-02-16T05:57:46.808Z,45.90
2023-02-16T06:00:14.392Z,48.47
2023-02-16T06:02:41.440Z,55.28
2023-02-16T06:05:08.547Z,52.63
2023-02-16T06:07:35.457Z,52.67
2023-02-16T06:10:02.598Z,64.15
2023-02-16T06:12:30.801Z,56.03
2023-02-16T06:14:58.231Z,56.30
2023-02-16T06:17:25.176Z,61.88
2023-02-16T06:19:52.101Z,55.53
2023-02-16T06:22:19.020Z,58.83
2023-02-16T06:24:45.941Z,52.20
2023-02-16T06:27:12.890Z,67.70
2023-02-16T06:29:39.803Z,64.63
2023-02-16T06:32:06.813Z,60.40
2023-02-16T06:34:33.769Z,56.58
2023-02-16T06:37:00.721Z,58.67
2023-02-16T06:39:27.629Z,62.33
2023-02-16T06:41:54.552Z,69.80
2023-02-16T06:44:21.477Z,68.15
2023-02-16T06:46:48.704Z,66.60
2023-02-16T06:49:18.773Z,73.75
2023-02-16T06:51:47.010Z,63.08
2023-02-16T06:54:14.647Z,58.33
2023-02-16T06:56:42.500Z,69.20
2023-02-16T06:59:11.170Z,64.57
2023-02-16T07:01:38.776Z,67.65
2023-02-16T07:04:05.756Z,63.20
2023-02-16T07:06:32.708Z,73.03
2023-02-16T07:09:00.277Z,75.35
2023-02-16T07:11:27.202Z,80.55
2023-02-16T07:13:54.138Z,61.90
2023-02-16T07:16:21.422Z,61.65
2023-02-16T07:18:48.569Z,69.07
2023-02-16T07:21:15.813Z,73.32
2023-02-16T07:23:43.255Z,71.57
2023-02-16T07:26:10.450Z,74.72
2023-02-16T07:28:37.579Z,69.72
2023-02-16T07:58:11.243Z,74.43
2023-02-16T08:00:53.923Z,77.30
2023-02-16T08:03:24.635Z,83.95
2023-02-16T08:05:51.698Z,85.00
2023-02-16T08:08:18.613Z,85.88
2023-02-16T08:10:51.573Z,85.85
2023-02-16T08:13:20.602Z,98.30
2023-02-16T08:15:49.346Z,91.22
2023-02-16T08:18:47.509Z,101.05
2023-02-16T08:21:24.291Z,99.85
2023-02-16T08:24:01.632Z,96.82
2023-02-16T08:26:37.817Z,83.78
2023-02-16T08:29:06.021Z,86.30
2023-02-16T08:31:35.242Z,71.65
2023-02-16T08:34:03.885Z,71.80
2023-02-16T08:36:36.467Z,75.22
2023-02-16T08:39:07.252Z,81.63
2023-02-16T08:41:36.555Z,69.15
2023-02-16T08:44:05.245Z,72.65
2023-02-16T16:02:38.483Z,155.05
2023-02-16T16:05:09.662Z,149.98
2023-02-16T16:07:41.493Z,153.95
2023-02-16T16:10:37.039Z,156.43
2023-02-16T16:13:21.480Z,151.35
2023-02-16T16:15:50.254Z,163.00
2023-02-16T16:18:39.393Z,154.52
2023-02-16T16:21:17.027Z,158.57
2023-02-16T16:24:04.549Z,153.07
2023-02-16T16:26:35.288Z,156.35
2023-02-16T16:29:03.658Z,153.73
2023-02-16T16:31:33.640Z,166.48
2023-02-16T16:34:10.225Z,161.20
2023-02-16T16:36:47.684Z,174.35
2023-02-16T16:39:17.572Z,167.52
2023-02-16T16:42:09.268Z,161.25
2023-02-16T16:44:36.142Z,161.10
2023-02-16T16:47:37.318Z,153.82
2023-02-16T16:50:30.297Z,155.43
2023-02-16T16:52:58.131Z,156.82
2023-02-16T16:55:28.400Z,173.45
2023-02-16T16:58:09.929Z,167.00
2023-02-16T17:00:39.027Z,174.50
2023-02-16T17:03:08.682Z,169.52
2023-02-16T17:05:38.359Z,165.30
2023-02-16T17:08:05.577Z,169.45
